Time;durP1;ratioP1;P1;durP2;ratioP2;P2;SDS_P1;SDS_P2;PMS_P1;PMS_P2;Temp;Humidity;BMP_temperature;BMP_pressure;BME280_temperature;BME280_humidity;BME280_pressure;Samples;Min_cycle;Max_cycle;Signal;HPM_P1;HPM_P2
2021/03/06 00:02:27;;;;;;;;;;;;;;;6.49;82.20;100670.83;1768453;81;21560;-52
2021/03/06 00:04:54;;;;;;;;;;;;;;;6.49;82.34;100668.64;1768284;81;20216;-52
2021/03/06 00:07:21;;;;;;;;;;;;;;;6.48;82.73;100669.08;1768319;81;20248;-52
2021/03/06 00:09:49;;;;;;;;;;;;;;;6.49;83.10;100665.50;1768349;81;20176;-52
2021/03/06 00:12:16;;;;;;;;;;;;;;;6.50;83.66;100669.92;1768301;81;20244;-52
2021/03/06 00:14:43;;;;;;;;;;;;;;;6.51;84.39;100674.34;1768363;81;21154;-52
2021/03/06 00:17:10;;;;;;;;;;;;;;;6.53;86.18;100675.22;1768189;81;20196;-52
2021/03/06 00:19:38;;;;;;;;;;;;;;;6.53;88.96;100669.00;1768354;81;20109;-52
2021/03/06 00:22:05;;;;;;;;;;;;;;;6.52;91.13;100660.14;1768232;81;20224;-52
2021/03/06 00:24:33;;;;;;;;;;;;;;;6.51;92.94;100657.02;1768416;81;20216;-52
2021/03/06 00:27:00;;;;;;;;;;;;;;;6.51;94.80;100654.83;1768230;81;21306;-52
2021/03/06 00:29:28;;;;;;;;;;;;;;;6.50;96.05;100661.92;1768382;81;20501;-52
2021/03/06 00:31:55;;;;;;;;;;;;;;;6.49;97.19;100661.98;1768333;81;20267;-52
2021/03/06 00:34:23;;;;;;;;;;;;;;;6.47;97.89;100663.33;1768363;81;20292;-52
2021/03/06 00:36:50;;;;;;;;;;;;;;;6.45;98.16;100638.51;1768329;81;20275;-52
2021/03/06 00:39:17;;;;;;;;;;;;;;;6.44;98.54;100643.41;1768319;81;21388;-52
2021/03/06 00:41:44;;;;;;;;;;;;;;;6.42;98.70;100643.90;1768286;81;20253;-52
2021/03/06 00:44:11;;;;;;;;;;;;;;;6.42;98.93;100647.89;1769528;81;20245;-52
2021/03/06 00:46:39;;;;;;;;;;;;;;;6.38;98.94;100628.89;1771596;81;20220;-51
2021/03/06 00:49:09;;;;;;;;;;;;;;;6.33;98.66;100632.11;1771486;81;20223;-51
2021/03/06 00:51:40;;;;;;;;;;;;;;;6.24;98.30;100634.02;1771594;81;21388;-51
2021/03/06 00:54:09;;;;;;;;;;;;;;;6.14;98.14;100630.65;1771432;81;20240;-51
2021/03/06 00:56:37;;;;;;;;;;;;;;;6.05;97.96;100640.14;1771548;81;20224;-51
2021/03/06 00:59:05;;;;;;;;;;;;;;;5.98;97.63;100631.83;1771635;81;20353;-51
2021/03/06 01:01:32;;;;;;;;;;;;;;;5.85;97.10;100644.44;1771526;81;20298;-51
2021/03/06 01:04:00;;;;;;;;;;;;;;;5.68;96.84;100642.97;1771580;81;21212;-51
2021/03/06 01:06:27;;;;;;;;;;;;;;;5.54;96.71;100644.52;1771432;81;20239;-51
2021/03/06 01:08:54;;;;;;;;;;;;;;;5.40;96.74;100652.68;1771577;81;20216;-51
2021/03/06 01:11:21;;;;;;;;;;;;;;;5.30;96.87;100645.33;1771442;81;20355;-51
2021/03/06 01:13:49;;;;;;;;;;;;;;;5.21;96.86;100652.09;1771607;81;20220;-52
2021/03/06 01:16:17;;;;;;;;;;;;;;;5.13;96.91;100657.50;1771415;81;21216;-51
2021/03/06 01:18:44;;;;;;;;;;;;;;;5.04;96.92;100666.95;1771521;81;20224;-52
2021/03/06 01:21:13;;;;;;;;;;;;;;;4.97;97.08;100658.61;1771497;81;20228;-51
2021/03/06 01:23:42;;;;;;;;;;;;;;;4.93;97.01;100654.23;1771679;81;20220;-51
2021/03/06 01:26:09;;;;;;;;;;;;;;;4.88;96.89;100661.83;1771635;81;20487;-51
2021/03/06 01:28:36;;;;;;;;;;;;;;;4.83;96.85;100658.36;1771639;81;23088;-51
2021/03/06 01:31:03;;;;;;;;;;;;;;;4.79;96.82;100642.03;1771637;81;20779;-51
2021/03/06 01:33:30;;;;;;;;;;;;;;;4.75;96.89;100652.70;1771641;81;21019;-51
2021/03/06 01:35:58;;;;;;;;;;;;;;;4.69;96.99;100658.97;1771662;81;21010;-51
2021/03/06 01:38:25;;;;;;;;;;;;;;;4.67;97.13;100662.09;1771562;81;20278;-50
2021/03/06 01:40:52;;;;;;;;;;;;;;;4.65;97.16;100665.22;1771660;81;21626;-51
2021/03/06 01:43:21;;;;;;;;;;;;;;;4.62;97.13;100679.86;1771325;81;20248;-51
2021/03/06 01:45:48;;;;;;;;;;;;;;;4.57;97.09;100674.59;1767465;81;20223;-51
2021/03/06 01:48:16;;;;;;;;;;;;;;;4.53;97.22;100680.84;1767368;81;20221;-51
2021/03/06 01:50:44;;;;;;;;;;;;;;;4.49;97.39;100674.67;1767500;81;20224;-51
2021/03/06 01:53:13;;;;;;;;;;;;;;;4.49;97.59;100679.12;1767436;81;21327;-51
2021/03/06 01:55:43;;;;;;;;;;;;;;;4.44;97.73;100687.13;1767389;81;20220;-51
2021/03/06 01:58:10;;;;;;;;;;;;;;;4.40;97.91;100682.75;1767337;81;20267;-51
2021/03/06 02:00:37;;;;;;;;;;;;;;;4.38;98.14;100695.16;1767385;81;20217;-51
2021/03/06 02:03:05;;;;;;;;;;;;;;;4.35;98.37;100697.86;1767480;81;20240;-52
2021/03/06 02:05:33;;;;;;;;;;;;;;;4.30;98.46;100700.08;1767389;81;21561;-52
2021/03/06 02:08:01;;;;;;;;;;;;;;;4.27;98.58;100697.46;1767434;81;20271;-52
2021/03/06 02:10:32;;;;;;;;;;;;;;;4.25;98.68;100710.33;1767377;81;20497;-51
2021/03/06 02:13:20;;;;;;;;;;;;;;;4.21;98.62;100717.44;1767541;81;20892;-52
2021/03/06 02:16:07;;;;;;;;;;;;;;;4.18;98.32;100729.41;1767446;81;20224;-51
2021/03/06 02:18:57;;;;;;;;;;;;;;;4.10;97.77;100733.45;1767391;81;21388;-52
2021/03/06 02:21:52;;;;;;;;;;;;;;;3.98;96.91;100722.96;1767374;81;20217;-52
2021/03/06 02:24:28;;;;;;;;;;;;;;;3.83;96.47;100747.80;1767377;81;20224;-51
2021/03/06 02:27:15;;;;;;;;;;;;;;;3.66;96.51;100744.84;1767453;80;20219;-51
2021/03/06 02:29:52;;;;;;;;;;;;;;;3.55;96.75;100757.27;1767512;81;20690;-51
2021/03/06 02:32:23;;;;;;;;;;;;;;;3.47;97.31;100765.72;1767775;81;22145;-51
2021/03/06 02:35:07;;;;;;;;;;;;;;;3.39;97.75;100774.58;1767513;81;20279;-51
2021/03/06 02:37:41;;;;;;;;;;;;;;;3.36;98.07;100771.94;1767523;81;20283;-51
2021/03/06 02:40:10;;;;;;;;;;;;;;;3.32;98.59;100792.73;1767611;81;20244;-51
2021/03/06 02:42:37;;;;;;;;;;;;;;;3.27;99.20;100788.77;1767521;81;20232;-51
2021/03/06 02:45:05;;;;;;;;;;;;;;;3.25;99.43;100807.77;1744353;81;21276;-51
2021/03/06 02:47:33;;;;;;;;;;;;;;;3.26;99.74;100809.98;1737139;82;20529;-51
2021/03/06 02:50:01;;;;;;;;;;;;;;;3.25;99.63;100836.05;1737175;82;20282;-50
2021/03/06 02:52:29;;;;;;;;;;;;;;;3.19;99.06;100877.12;1737031;82;20227;-53
2021/03/06 02:54:57;;;;;;;;;;;;;;;3.10;98.86;100856.86;1737269;82;20252;-51
2021/03/06 02:57:56;;;;;;;;;;;;;;;3.02;98.88;100872.76;1737073;82;21715;-50
2021/03/06 03:00:45;;;;;;;;;;;;;;;2.95;98.29;100861.71;1737038;82;20218;-50
2021/03/06 03:03:18;;;;;;;;;;;;;;;2.88;98.01;100870.56;1737121;82;20238;-51
2021/03/06 03:05:58;;;;;;;;;;;;;;;2.76;97.91;100860.41;1737092;82;20230;-51
2021/03/06 03:08:28;;;;;;;;;;;;;;;2.66;97.61;100891.33;1736426;82;20247;-50
2021/03/06 03:10:59;;;;;;;;;;;;;;;2.58;97.74;100874.13;1737194;82;21217;-51
2021/03/06 03:13:30;;;;;;;;;;;;;;;2.54;98.12;100894.86;1737009;82;20222;-51
2021/03/06 03:16:00;;;;;;;;;;;;;;;2.54;98.30;100898.83;1736919;82;20218;-51
2021/03/06 03:18:28;;;;;;;;;;;;;;;2.53;98.46;100913.38;1736991;82;20243;-51
2021/03/06 03:20:58;;;;;;;;;;;;;;;2.53;98.46;100931.45;1737268;82;20222;-51
2021/03/06 03:23:38;;;;;;;;;;;;;;;2.51;97.87;100910.71;1737130;82;21376;-51
2021/03/06 03:26:08;;;;;;;;;;;;;;;2.46;97.28;100955.28;1737137;82;20219;-51
2021/03/06 03:28:36;;;;;;;;;;;;;;;2.40;97.14;100912.48;1736735;82;20243;-51
2021/03/06 03:31:04;;;;;;;;;;;;;;;2.35;97.15;100932.31;1736878;82;20237;-52
2021/03/06 03:33:33;;;;;;;;;;;;;;;2.31;97.26;100923.93;1736861;82;20507;-52
2021/03/06 03:36:01;;;;;;;;;;;;;;;2.33;97.44;100900.13;1737016;82;22230;-52
2021/03/06 03:38:29;;;;;;;;;;;;;;;2.33;97.55;100902.78;1736918;82;20274;-52
2021/03/06 03:41:01;;;;;;;;;;;;;;;2.32;97.53;100935.37;1736800;82;20235;-53
2021/03/06 03:43:28;;;;;;;;;;;;;;;2.32;97.51;100922.15;1739573;81;20218;-52
2021/03/06 03:45:56;;;;;;;;;;;;;;;2.29;97.32;100962.28;1764017;81;20216;-52
2021/03/06 03:48:23;;;;;;;;;;;;;;;2.28;97.10;100987.43;1764015;81;21221;-52
2021/03/06 03:50:52;;;;;;;;;;;;;;;2.28;97.21;100953.03;1763858;81;20229;-52
2021/03/06 03:53:20;;;;;;;;;;;;;;;2.26;97.13;100982.58;1764013;81;20220;-52
2021/03/06 03:55:47;;;;;;;;;;;;;;;2.24;97.21;101007.69;1763867;81;20373;-52
2021/03/06 03:58:15;;;;;;;;;;;;;;;2.25;97.34;100985.65;1764001;81;20220;-52
2021/03/06 04:00:42;;;;;;;;;;;;;;;2.25;97.19;100959.19;1763997;81;21217;-52
2021/03/06 04:03:10;;;;;;;;;;;;;;;2.25;96.95;101003.30;1763856;81;20228;-52
2021/03/06 04:05:37;;;;;;;;;;;;;;;2.24;96.78;100983.88;1763943;81;20250;-52
2021/03/06 04:08:06;;;;;;;;;;;;;;;2.25;96.50;100998.88;1763946;81;20367;-53
2021/03/06 04:10:33;;;;;;;;;;;;;;;2.23;96.24;101052.23;1763997;81;20232;-51
2021/03/06 04:13:01;;;;;;;;;;;;;;;2.21;96.12;101028.85;1763900;81;21389;-53
2021/03/06 04:15:29;;;;;;;;;;;;;;;2.19;96.26;101021.34;1763950;81;20237;-51
2021/03/06 04:17:56;;;;;;;;;;;;;;;2.17;95.98;101022.20;1763903;81;20264;-52
2021/03/06 04:20:24;;;;;;;;;;;;;;;2.11;95.68;101050.87;1763967;81;20227;-52
2021/03/06 04:22:53;;;;;;;;;;;;;;;2.07;95.55;101052.60;1733672;82;20225;-52
2021/03/06 04:25:20;;;;;;;;;;;;;;;2.03;95.43;101048.60;1764017;81;21390;-51
2021/03/06 04:27:49;;;;;;;;;;;;;;;2.02;95.38;101091.80;1762447;81;20284;-52
2021/03/06 04:30:17;;;;;;;;;;;;;;;2.01;95.14;101096.22;1764047;81;20319;-51
2021/03/06 04:32:44;;;;;;;;;;;;;;;1.99;95.05;101067.11;1763965;81;20307;-52
2021/03/06 04:35:12;;;;;;;;;;;;;;;1.99;95.08;101089.59;1763943;81;20220;-51
2021/03/06 04:37:41;;;;;;;;;;;;;;;1.97;94.80;101121.75;1763917;81;21206;-52
2021/03/06 04:40:10;;;;;;;;;;;;;;;1.96;94.25;101095.28;1763863;81;20217;-52
2021/03/06 04:42:37;;;;;;;;;;;;;;;1.92;93.94;101102.75;1764044;81;20487;-53
2021/03/06 04:45:05;;;;;;;;;;;;;;;1.90;93.38;101097.90;1761040;81;20228;-51
2021/03/06 04:47:32;;;;;;;;;;;;;;;1.85;92.98;101126.52;1760300;81;20256;-51
2021/03/06 04:50:00;;;;;;;;;;;;;;;1.79;92.87;101136.16;1760109;81;21659;-51
2021/03/06 04:52:29;;;;;;;;;;;;;;;1.75;92.91;101107.94;1760069;81;20244;-51
2021/03/06 04:54:56;;;;;;;;;;;;;;;1.70;92.18;101127.30;1760148;81;20236;-51
2021/03/06 04:57:25;;;;;;;;;;;;;;;1.68;92.38;101119.80;1760117;81;20224;-52
2021/03/06 04:59:52;;;;;;;;;;;;;;;1.67;92.55;101116.70;1760244;81;20221;-51
2021/03/06 05:02:19;;;;;;;;;;;;;;;1.67;92.67;101106.55;1760142;81;21814;-51
2021/03/06 05:04:47;;;;;;;;;;;;;;;1.66;92.91;101155.91;1760069;81;20221;-52
2021/03/06 05:07:14;;;;;;;;;;;;;;;1.63;92.28;101142.64;1760134;81;20216;-51
2021/03/06 05:09:41;;;;;;;;;;;;;;;1.59;92.41;101151.87;1760153;81;20360;-51
2021/03/06 05:12:09;;;;;;;;;;;;;;;1.57;92.05;101149.20;1760140;81;20221;-51
2021/03/06 05:14:36;;;;;;;;;;;;;;;1.52;91.55;101146.52;1760282;81;22204;-51
2021/03/06 05:17:04;;;;;;;;;;;;;;;1.43;90.84;101159.20;1760015;81;20229;-51
2021/03/06 05:19:31;;;;;;;;;;;;;;;1.34;90.61;101123.92;1760138;81;20268;-51
2021/03/06 05:21:58;;;;;;;;;;;;;;;1.28;91.04;101126.06;1760148;81;20221;-52
2021/03/06 05:24:26;;;;;;;;;;;;;;;1.24;91.34;101131.73;1760184;81;20241;-51
2021/03/06 05:27:02;;;;;;;;;;;;;;;1.21;90.86;101173.08;1760088;81;21324;-51
2021/03/06 05:29:31;;;;;;;;;;;;;;;1.20;91.34;101135.64;1759958;81;20237;-52
2021/03/06 05:32:00;;;;;;;;;;;;;;;1.18;90.56;101122.86;1760244;81;20237;-51
2021/03/06 05:34:27;;;;;;;;;;;;;;;1.14;90.68;101170.38;1760043;81;20252;-51
2021/03/06 05:36:55;;;;;;;;;;;;;;;1.16;90.57;101207.80;1760215;81;20216;-53
2021/03/06 05:39:22;;;;;;;;;;;;;;;1.14;90.34;101180.94;1760009;81;21395;-52
2021/03/06 05:41:50;;;;;;;;;;;;;;;1.16;89.67;101206.48;1760122;81;20224;-51
2021/03/06 05:44:17;;;;;;;;;;;;;;;1.17;89.30;101206.94;1762619;81;20216;-51
2021/03/06 05:46:45;;;;;;;;;;;;;;;1.18;88.61;101216.21;1766105;81;20365;-51
2021/03/06 05:49:13;;;;;;;;;;;;;;;1.14;87.91;101260.19;1766012;81;20228;-51
2021/03/06 05:51:41;;;;;;;;;;;;;;;1.11;87.40;101258.83;1766167;81;22343;-51
2021/03/06 05:54:12;;;;;;;;;;;;;;;1.11;87.01;101278.64;1765994;81;20224;-51
2021/03/06 05:56:42;;;;;;;;;;;;;;;1.12;86.65;101265.88;1766054;81;20229;-52
2021/03/06 05:59:12;;;;;;;;;;;;;;;1.12;85.82;101294.94;1766195;81;21368;-52
2021/03/06 06:01:41;;;;;;;;;;;;;;;1.13;85.79;101291.42;1766140;81;20220;-52
2021/03/06 06:04:09;;;;;;;;;;;;;;;1.16;85.31;101323.61;1766272;81;21375;-51
2021/03/06 06:06:38;;;;;;;;;;;;;;;1.18;84.79;101338.14;1766141;81;20244;-51
2021/03/06 06:09:06;;;;;;;;;;;;;;;1.18;84.54;101348.70;1766228;81;20237;-51
2021/03/06 06:11:34;;;;;;;;;;;;;;;1.18;84.35;101324.93;1766165;81;20216;-52
2021/03/06 06:14:02;;;;;;;;;;;;;;;1.19;84.12;101368.97;1766267;81;20271;-51
2021/03/06 06:16:30;;;;;;;;;;;;;;;1.20;84.18;101345.65;1766164;81;21213;-51
2021/03/06 06:19:05;;;;;;;;;;;;;;;1.19;84.00;101380.44;1766075;81;20216;-52
2021/03/06 06:21:46;;;;;;;;;;;;;;;1.19;83.91;101361.05;1766278;81;20216;-52
2021/03/06 06:24:19;;;;;;;;;;;;;;;1.16;83.62;101350.44;1766112;81;20560;-51
2021/03/06 06:26:59;;;;;;;;;;;;;;;1.16;83.56;101384.78;1766359;81;20509;-52
2021/03/06 06:29:40;;;;;;;;;;;;;;;1.17;83.46;101395.38;1766075;81;22164;-52
2021/03/06 06:32:09;;;;;;;;;;;;;;;1.17;83.67;101389.20;1766214;81;20221;-52
2021/03/06 06:34:37;;;;;;;;;;;;;;;1.19;83.47;101390.10;1766280;81;20488;-52
2021/03/06 06:37:13;;;;;;;;;;;;;;;1.20;83.58;101396.75;1736010;82;20245;-52
2021/03/06 06:39:43;;;;;;;;;;;;;;;1.23;83.22;101406.48;1766171;81;20263;-52
2021/03/06 06:42:10;;;;;;;;;;;;;;;1.26;83.20;101402.55;1766196;81;21374;-51
2021/03/06 06:44:38;;;;;;;;;;;;;;;1.28;82.98;101441.77;1766723;81;20245;-51
2021/03/06 06:47:14;;;;;;;;;;;;;;;1.27;82.35;101432.07;1767231;81;20258;-51
2021/03/06 06:49:44;;;;;;;;;;;;;;;1.27;83.17;101421.50;1767245;81;20252;-52
2021/03/06 06:52:11;;;;;;;;;;;;;;;1.28;82.96;101448.38;1767292;81;20275;-51
2021/03/06 06:54:38;;;;;;;;;;;;;;;1.29;82.88;101447.51;1767366;81;21389;-52
2021/03/06 06:57:14;;;;;;;;;;;;;;;1.28;82.33;101464.23;1767148;81;20232;-52
2021/03/06 06:59:57;;;;;;;;;;;;;;;1.27;81.96;101459.36;1767346;81;20488;-52
2021/03/06 07:02:27;;;;;;;;;;;;;;;1.26;81.97;101453.63;1766204;81;20376;-53
2021/03/06 07:04:57;;;;;;;;;;;;;;;1.25;82.11;101487.97;1767268;81;20216;-53
2021/03/06 07:07:25;;;;;;;;;;;;;;;1.25;82.01;101469.47;1767315;81;21391;-52
2021/03/06 07:10:01;;;;;;;;;;;;;;;1.24;81.66;101487.52;1767164;81;20192;-51
2021/03/06 07:12:32;;;;;;;;;;;;;;;1.25;81.63;101480.04;1767349;81;20220;-53
2021/03/06 07:15:00;;;;;;;;;;;;;;;1.28;81.93;101482.72;1767160;81;20232;-52
2021/03/06 07:17:34;;;;;;;;;;;;;;;1.28;81.13;101497.26;1767270;81;20220;-52
2021/03/06 07:20:01;;;;;;;;;;;;;;;1.28;81.10;101494.16;1766948;81;21220;-52
2021/03/06 07:22:29;;;;;;;;;;;;;;;1.31;81.27;101488.05;1767319;81;20267;-52
2021/03/06 07:24:56;;;;;;;;;;;;;;;1.36;81.05;101486.36;1767285;81;20296;-52
2021/03/06 07:27:23;;;;;;;;;;;;;;;1.38;80.41;101496.52;1767254;81;20279;-52
2021/03/06 07:29:50;;;;;;;;;;;;;;;1.40;80.21;101496.55;1773762;80;20237;-52
2021/03/06 07:32:19;;;;;;;;;;;;;;;1.39;79.85;101531.32;1776226;80;21701;-53
2021/03/06 07:34:47;;;;;;;;;;;;;;;1.39;79.50;101537.93;1776138;80;20239;-52
2021/03/06 07:37:15;;;;;;;;;;;;;;;1.41;79.44;101515.51;1776238;80;20240;-52
2021/03/06 07:39:43;;;;;;;;;;;;;;;1.41;79.41;101552.05;1776201;80;20283;-52
2021/03/06 07:42:46;;;;;;;;;;;;;;;1.42;78.97;101534.01;1776274;80;20236;-52
2021/03/06 07:45:17;;;;;;;;;;;;;;;1.43;79.02;101529.63;1751179;80;21557;-52
2021/03/06 07:47:44;;;;;;;;;;;;;;;1.47;78.86;101572.86;1763287;81;20235;-53
2021/03/06 07:50:21;;;;;;;;;;;;;;;1.48;78.53;101535.86;1769605;81;20283;-51
2021/03/06 07:52:48;;;;;;;;;;;;;;;1.48;78.25;101535.00;1769614;81;20243;-52
2021/03/06 07:55:16;;;;;;;;;;;;;;;1.48;78.19;101568.03;1769586;81;20231;-52
2021/03/06 07:58:04;;;;;;;;;;;;;;;1.50;77.89;101528.84;1769661;81;21388;-51
2021/03/06 08:00:57;;;;;;;;;;;;;;;1.53;77.44;101532.84;1769385;81;20382;-52
2021/03/06 08:03:36;;;;;;;;;;;;;;;1.57;76.99;101553.62;1769778;81;20321;-52
2021/03/06 08:06:24;;;;;;;;;;;;;;;1.64;77.23;101565.19;1769703;81;20235;-52
2021/03/06 08:08:57;;;;;;;;;;;;;;;1.69;76.24;101560.43;1769564;81;20278;-52
2021/03/06 08:11:37;;;;;;;;;;;;;;;1.78;76.01;101574.64;1769691;81;21078;-52
2021/03/06 08:14:06;;;;;;;;;;;;;;;1.85;75.92;101532.86;1769587;81;20151;-51
2021/03/06 08:16:34;;;;;;;;;;;;;;;1.95;75.32;101532.13;1769645;81;20267;-52
2021/03/06 08:19:12;;;;;;;;;;;;;;;2.04;74.54;101530.47;1769504;81;20231;-53
2021/03/06 08:21:43;;;;;;;;;;;;;;;2.12;74.94;101528.83;1769667;81;20152;-54
2021/03/06 08:24:21;;;;;;;;;;;;;;;2.21;73.96;101567.30;1769752;81;22362;-52
2021/03/06 08:27:11;;;;;;;;;;;;;;;2.28;73.38;101549.29;1769552;81;20235;-53
2021/03/06 08:29:41;;;;;;;;;;;;;;;2.35;72.75;101548.06;1769406;79;20310;-52
2021/03/06 08:32:16;;;;;;;;;;;;;;;2.35;71.85;101540.99;1771426;81;20309;-53
2021/03/06 08:34:49;;;;;;;;;;;;;;;2.37;72.09;101534.41;1771595;81;20234;-51
2021/03/06 08:37:22;;;;;;;;;;;;;;;2.41;71.90;101589.16;1771459;81;21192;-52
2021/03/06 08:40:01;;;;;;;;;;;;;;;2.45;71.95;101576.41;1771546;81;20322;-52
2021/03/06 08:42:39;;;;;;;;;;;;;;;2.46;71.00;101581.28;1771492;81;20255;-52
2021/03/06 08:45:10;;;;;;;;;;;;;;;2.47;70.65;101605.11;1766185;81;20243;-52
2021/03/06 08:47:46;;;;;;;;;;;;;;;2.53;70.63;101609.14;1761598;81;20244;-52
2021/03/06 08:50:17;;;;;;;;;;;;;;;2.58;69.96;101595.55;1761439;81;21198;-52
2021/03/06 08:52:56;;;;;;;;;;;;;;;2.62;69.12;101630.00;1761472;81;20487;-53
2021/03/06 08:55:26;;;;;;;;;;;;;;;2.58;68.67;101648.50;1761461;81;20212;-52
2021/03/06 08:57:53;;;;;;;;;;;;;;;2.57;68.83;101633.48;1761405;81;20252;-52
2021/03/06 09:00:25;;;;;;;;;;;;;;;2.63;69.25;101607.95;1761481;81;20271;-52
2021/03/06 09:02:52;;;;;;;;;;;;;;;2.70;69.06;101627.00;1761558;81;22303;-53
2021/03/06 09:05:22;;;;;;;;;;;;;;;2.76;68.08;101638.98;1761565;81;20229;-52
2021/03/06 09:07:55;;;;;;;;;;;;;;;2.82;67.76;101653.64;1761261;81;33445;-53
2021/03/06 09:10:37;;;;;;;;;;;;;;;2.83;66.74;101643.50;1761485;81;20217;-51
2021/03/06 09:13:15;;;;;;;;;;;;;;;2.88;66.51;101638.68;1761543;81;20288;-52
2021/03/06 09:15:53;;;;;;;;;;;;;;;2.94;67.02;101626.81;1761613;81;22253;-52
2021/03/06 09:18:23;;;;;;;;;;;;;;;2.99;65.77;101641.03;1761380;81;20260;-53
2021/03/06 09:20:54;;;;;;;;;;;;;;;3.03;65.20;101642.83;1761538;81;20475;-53
2021/03/06 09:23:26;;;;;;;;;;;;;;;3.04;64.43;101679.05;1758645;81;20272;-52
2021/03/06 09:25:54;;;;;;;;;;;;;;;3.06;65.57;101653.87;1761418;81;20240;-53
2021/03/06 09:28:22;;;;;;;;;;;;;;;3.07;65.49;101667.16;1761412;81;23657;-53
2021/03/06 09:30:50;;;;;;;;;;;;;;;3.15;65.59;101648.23;1749952;81;20625;-52
2021/03/06 09:33:34;;;;;;;;;;;;;;;3.22;64.53;101658.92;1748149;82;20237;-52
2021/03/06 09:36:14;;;;;;;;;;;;;;;3.26;64.34;101668.69;1748035;82;20307;-52
2021/03/06 09:38:50;;;;;;;;;;;;;;;3.24;63.23;101654.08;1748056;82;20257;-55
2021/03/06 09:41:19;;;;;;;;;;;;;;;3.22;63.55;101668.20;1748095;82;21372;-52
2021/03/06 09:43:53;;;;;;;;;;;;;;;3.14;63.39;101654.42;1749335;82;20208;-52
2021/03/06 09:46:27;;;;;;;;;;;;;;;3.10;64.81;101675.59;1753694;82;20292;-52
2021/03/06 09:49:02;;;;;;;;;;;;;;;3.10;64.20;101683.54;1753289;82;20279;-53
2021/03/06 09:51:52;;;;;;;;;;;;;;;3.07;63.78;101679.09;1754000;82;20220;-51
2021/03/06 09:54:24;;;;;;;;;;;;;;;3.05;63.59;101683.48;1753771;81;21300;-53
2021/03/06 09:56:53;;;;;;;;;;;;;;;3.03;63.47;101679.92;1753845;82;20245;-53
2021/03/06 09:59:23;;;;;;;;;;;;;;;3.02;62.65;101674.17;1753887;82;20245;-53
2021/03/06 10:01:50;;;;;;;;;;;;;;;3.01;62.76;101681.67;1753980;82;20232;-53
2021/03/06 10:04:22;;;;;;;;;;;;;;;3.02;62.81;101658.28;1754042;82;20228;-52
2021/03/06 10:06:52;;;;;;;;;;;;;;;3.05;62.26;101668.91;1753898;82;21439;-52
2021/03/06 10:09:21;;;;;;;;;;;;;;;3.06;60.85;101691.88;1753950;81;20703;-53
2021/03/06 10:11:55;;;;;;;;;;;;;;;3.10;60.26;101692.81;1753867;81;20237;-52
2021/03/06 10:14:25;;;;;;;;;;;;;;;3.17;60.59;101692.42;1753905;82;20225;-52
2021/03/06 10:16:53;;;;;;;;;;;;;;;3.30;59.62;101681.95;1753978;82;20272;-52
2021/03/06 10:19:22;;;;;;;;;;;;;;;3.40;58.61;101682.94;1753860;82;21414;-52
2021/03/06 10:22:06;;;;;;;;;;;;;;;3.48;58.37;101684.80;1753975;82;20624;-52
2021/03/06 10:25:01;;;;;;;;;;;;;;;3.56;58.03;101683.09;1753845;82;20224;-53
2021/03/06 10:27:46;;;;;;;;;;;;;;;3.64;58.65;101670.78;1753973;82;20225;-52
2021/03/06 10:30:16;;;;;;;;;;;;;;;3.68;57.29;101709.74;1760421;81;20230;-53
2021/03/06 10:32:48;;;;;;;;;;;;;;;3.62;56.92;101695.08;1768527;81;21449;-52
2021/03/06 10:35:38;;;;;;;;;;;;;;;3.64;56.57;101673.44;1768383;81;20232;-52
2021/03/06 10:38:09;;;;;;;;;;;;;;;3.71;56.71;101687.22;1768550;81;20471;-51
2021/03/06 10:40:47;;;;;;;;;;;;;;;3.86;55.12;101692.18;1768507;81;20220;-53
2021/03/06 10:43:33;;;;;;;;;;;;;;;3.92;55.15;101671.03;1768389;81;20246;-52
2021/03/06 10:46:13;;;;;;;;;;;;;;;4.03;54.27;101680.81;1738073;82;21214;-52
2021/03/06 10:48:41;;;;;;;;;;;;;;;4.15;54.63;101665.86;1738019;82;20219;-51
2021/03/06 10:51:09;;;;;;;;;;;;;;;4.19;53.69;101665.88;1738261;82;20243;-53
2021/03/06 10:53:36;;;;;;;;;;;;;;;4.18;53.65;101682.26;1738156;82;20243;-51
2021/03/06 10:56:07;;;;;;;;;;;;;;;4.19;54.15;101693.33;1738133;82;20218;-52
2021/03/06 10:58:42;;;;;;;;;;;;;;;4.23;53.34;101679.19;1738284;82;21698;-51
2021/03/06 11:01:16;;;;;;;;;;;;;;;4.26;52.61;101659.28;1734682;82;20294;-52
2021/03/06 11:03:48;;;;;;;;;;;;;;;4.32;51.60;101712.00;1737894;82;20294;-52
2021/03/06 11:06:15;;;;;;;;;;;;;;;4.34;51.67;101676.59;1738118;82;20234;-52
2021/03/06 11:08:43;;;;;;;;;;;;;;;4.32;52.03;101678.36;1738208;82;20226;-52
2021/03/06 11:11:11;;;;;;;;;;;;;;;4.33;52.28;101684.57;1738095;82;21648;-52
2021/03/06 11:13:45;;;;;;;;;;;;;;;4.29;52.07;101683.20;1737171;82;20231;-53
2021/03/06 11:16:12;;;;;;;;;;;;;;;4.31;52.21;101708.44;1738122;82;20298;-53
2021/03/06 11:18:43;;;;;;;;;;;;;;;4.46;51.35;101687.72;1738184;82;20934;-52
2021/03/06 11:21:13;;;;;;;;;;;;;;;4.56;49.77;101699.28;1738270;82;20270;-52
2021/03/06 11:23:42;;;;;;;;;;;;;;;4.57;50.69;101694.00;1738116;82;21376;-52
2021/03/06 11:26:09;;;;;;;;;;;;;;;4.56;50.61;101710.81;1738111;82;20246;-52
2021/03/06 11:28:36;;;;;;;;;;;;;;;4.50;50.76;101733.79;1738123;82;20235;-52
2021/03/06 11:31:04;;;;;;;;;;;;;;;4.42;50.18;101733.73;1728769;81;20243;-52
2021/03/06 11:33:32;;;;;;;;;;;;;;;4.37;49.80;101704.95;1724077;82;20298;-53
2021/03/06 11:35:59;;;;;;;;;;;;;;;4.36;50.46;101697.86;1724092;82;21549;-53
2021/03/06 11:38:27;;;;;;;;;;;;;;;4.35;51.02;101711.56;1724029;83;20222;-52
2021/03/06 11:40:54;;;;;;;;;;;;;;;4.37;49.42;101728.84;1724159;83;20223;-51
2021/03/06 11:43:22;;;;;;;;;;;;;;;4.39;48.57;101723.97;1725372;82;20270;-53
2021/03/06 11:45:49;;;;;;;;;;;;;;;4.44;48.34;101730.65;1749756;82;20245;-54
2021/03/06 11:48:17;;;;;;;;;;;;;;;4.44;49.11;101720.03;1749766;81;21046;-52
2021/03/06 11:50:46;;;;;;;;;;;;;;;4.44;48.86;101730.23;1749632;82;20187;-52
2021/03/06 11:53:15;;;;;;;;;;;;;;;4.47;48.29;101737.76;1749744;81;20237;-52
2021/03/06 11:55:42;;;;;;;;;;;;;;;4.47;47.89;101717.38;1749665;82;20250;-52
2021/03/06 11:58:10;;;;;;;;;;;;;;;4.51;48.02;101739.09;1749761;82;20237;-51
2021/03/06 12:00:37;;;;;;;;;;;;;;;4.52;47.02;101728.05;1749675;82;21383;-51
2021/03/06 12:03:05;;;;;;;;;;;;;;;4.54;46.80;101762.14;1749673;82;20229;-52
2021/03/06 12:05:34;;;;;;;;;;;;;;;4.55;46.55;101732.04;1749686;82;20278;-51
2021/03/06 12:08:01;;;;;;;;;;;;;;;4.62;46.48;101731.64;1749715;82;20242;-51
2021/03/06 12:10:30;;;;;;;;;;;;;;;4.66;46.46;101766.22;1749732;82;20257;-52
2021/03/06 12:12:57;;;;;;;;;;;;;;;4.68;46.21;101726.35;1749894;82;22904;-52
2021/03/06 12:15:26;;;;;;;;;;;;;;;4.67;45.16;101749.81;1749674;82;20575;-53
2021/03/06 12:17:54;;;;;;;;;;;;;;;4.65;43.44;101752.91;1749730;82;20239;-52
2021/03/06 12:20:22;;;;;;;;;;;;;;;4.66;43.32;101753.36;1749660;82;20306;-52
2021/03/06 12:22:51;;;;;;;;;;;;;;;4.69;43.74;101755.60;1749680;82;20248;-51
2021/03/06 12:25:18;;;;;;;;;;;;;;;4.74;43.18;101756.93;1749809;82;21558;-52
2021/03/06 12:27:45;;;;;;;;;;;;;;;4.77;42.13;101775.58;1749631;82;20246;-52
2021/03/06 12:30:15;;;;;;;;;;;;;;;4.76;42.44;101769.81;1751667;81;20228;-52
2021/03/06 12:32:43;;;;;;;;;;;;;;;4.77;42.37;101772.02;1761422;81;20314;-52
2021/03/06 12:35:12;;;;;;;;;;;;;;;4.75;43.05;101769.34;1761604;81;20363;-52
2021/03/06 12:37:39;;;;;;;;;;;;;;;4.72;43.72;101791.91;1761534;81;22118;-52
2021/03/06 12:40:07;;;;;;;;;;;;;;;4.68;44.76;101777.73;1761501;81;20221;-53
2021/03/06 12:42:35;;;;;;;;;;;;;;;4.65;45.26;101777.72;1761565;81;20220;-51
2021/03/06 12:45:05;;;;;;;;;;;;;;;4.63;45.95;101802.48;1758590;81;20245;-51
2021/03/06 12:47:32;;;;;;;;;;;;;;;4.59;46.07;101791.84;1757875;81;20542;-51
2021/03/06 12:50:01;;;;;;;;;;;;;;;4.56;46.24;101799.80;1757732;81;21261;-53
2021/03/06 12:52:29;;;;;;;;;;;;;;;4.58;46.32;101787.84;1757763;81;20237;-53
2021/03/06 12:54:57;;;;;;;;;;;;;;;4.65;45.78;101793.66;1757693;81;20223;-52
2021/03/06 12:57:24;;;;;;;;;;;;;;;4.69;43.90;101847.69;1757908;81;21193;-52
2021/03/06 12:59:51;;;;;;;;;;;;;;;4.66;44.83;101815.78;1762693;80;20640;-52
2021/03/06 13:02:18;;;;;;;;;;;;;;;4.65;44.89;101837.92;1776775;80;23182;-52
2021/03/06 13:04:46;;;;;;;;;;;;;;;4.59;44.67;101847.63;1776592;80;21963;-51
2021/03/06 13:07:13;;;;;;;;;;;;;;;4.52;44.08;101843.13;1776626;80;20425;-53